Saint Marie, Montana
Current Conditions -  °F | °C
As of 2:53 AM on Sunday 26 Oct 2014 (Local Time) from KGGW Reporting Station
Clear Clear  
Wind Chill: 38°   Ceiling: Unl
Heat Index: 44°   Visibility: 10mi
Dew Point: 32°   Wind: 12mph
Humidity: 63%   Direction: 100°E
Pressure: 29.51"   Gusts: NA
Location:  48.4°N, 106.55°W
Report Text: KGGW 260853Z AUTO 10010KT 10SM CLR 07/00 A2951 RMK AO2 SLP995 T00670000 56023 $
Loading
Personal Weather Stations






























Interactive Weather Map
Tropical Storm Tracking
New forecast layout! Learn more

10-Day Weather Forecast

Advertisements
Track Severe Weather on mobile